Main page
METAR-TAF:

METAR-TAF

Airports :

Liepāja International Airport

Liepāja, Latvia

latitude: 56-31N, longitude: 021-05E, elevation: 5 m

Current weather observation

The report was made 31 minutes ago, at 02:20 UTC
Wind 6 kt from the South/Southeast
Temperature -1°C
Humidity 93%
Pressure 1018 hPa
Visibility 10 km or more

METAR: EVLA 110220Z AUTO 15006KT 9999 NCD M01/M02 Q1018

Time: 04:51 (02:51 UTC)

Forecast

The report was made 48 minutes ago, at 02:03 UTC
Forecast valid from 11 at 03 UTC to 12 at 03 UTC
Wind 10 kt from the South
Visibility 10 km or more
no clouds below 1500 m and no cumulonimbus
Probability 40% :
Temporary
from 11 at 09 UTC to 11 at 12 UTC
Wind 15 kt from the South with gusts up to 28 kt

TAF: EVLA 110203Z 1103/1203 18010KT CAVOK PROB40 TEMPO 1109/1112 18015G28KT

Weather observations and forecasts of more than 4000 airports (METAR and TAF reports).

The available stations are represented by yellow and red dots on the map.

Hover mouse over dot to see the name of the station.

Then click to see weather observations and forecasts.

To change the map : click on the green buttons with a black cross to zoom in, on the green button with a dash to zoom out, or on the green arrows for adjacent maps.


METAR-TAF: